Date,TemperatureHighF,TemperatureAvgF,TemperatureLowF,DewpointHighF,DewpointAvgF,DewpointLowF,HumidityHigh,HumidityAvg,HumidityLow,PressureMaxIn,PressureMinIn,WindSpeedMaxMPH,WindSpeedAvgMPH,GustSpeedMaxMPH,PrecipitationSumIn
2013-6-1,76.1,66.5,59.6,51.8,46.3,41.6,73,51,31,30.02,29.89,9,5,15,0.01
2013-6-2,78.9,68.7,58.4,52.0,47.1,42.9,65,48,32,30.03,29.97,8,3,18,0.00
2013-6-3,76.6,66.2,56.6,53.4,49.0,46.0,71,56,37,30.03,29.97,8,3,11,0.00
2013-6-4,78.8,67.2,55.0,54.0,50.8,47.8,78,58,38,30.02,29.93,6,2,10,0.00
2013-6-5,78.7,67.1,58.2,52.6,49.0,45.1,71,54,35,29.97,29.91,6,2,9,0.00
2013-6-6,85.3,72.3,57.7,55.3,49.7,44.9,68,47,29,30.04,29.94,7,2,10,0.00
2013-6-7,80.8,69.9,59.9,59.8,54.7,48.3,82,60,40,30.05,29.94,6,2,9,0.00
2013-6-8,76.5,66.9,61.7,61.4,55.0,44.9,90,69,36,30.00,29.86,7,3,13,0.06
2013-6-9,74.8,66.7,58.6,58.0,53.6,48.6,86,65,42,29.92,29.80,10,5,18,0.00
2013-6-10,78.2,69.4,59.0,59.0,54.7,49.6,76,60,46,30.02,29.85,6,2,11,0.00
2013-6-11,80.6,69.4,57.8,64.3,58.5,50.0,79,69,55,30.06,29.99,8,3,13,0.00
2013-6-12,86.0,74.4,62.6,60.1,55.5,49.2,70,53,38,30.11,30.05,7,3,12,0.00
2013-6-13,90.4,78.3,64.5,60.0,55.3,52.5,69,47,32,30.06,29.99,6,2,11,0.00
2013-6-14,90.2,76.8,65.8,61.5,57.0,52.9,73,52,31,30.03,29.96,7,2,11,0.00
2013-6-15,95.2,80.7,65.8,55.7,50.8,43.3,60,37,23,30.00,29.94,5,2,9,0.00
2013-6-16,95.5,82.3,70.0,57.0,51.7,47.5,55,37,20,29.99,29.85,5,2,7,0.00
2013-6-17,100.7,84.5,73.3,67.2,58.0,46.7,75,42,28,29.87,29.72,6,2,10,0.00
2013-6-18,80.1,72.7,66.8,67.4,64.7,55.3,87,77,49,29.82,29.71,7,3,9,0.00
2013-6-19,83.4,71.8,60.7,62.1,55.9,48.3,84,61,32,29.96,29.80,8,3,10,0.00
2013-6-20,81.2,70.2,60.5,62.9,56.6,48.6,75,63,51,30.06,29.94,7,2,9,0.00
2013-6-21,85.3,72.9,61.1,61.6,56.5,51.1,79,58,36,30.09,29.99,6,2,9,0.00
2013-6-22,81.6,71.4,64.5,65.3,60.2,54.0,85,68,49,30.12,30.06,7,2,10,0.02
2013-6-23,84.3,72.0,60.3,62.6,57.4,52.0,86,62,36,30.13,30.06,7,2,11,0.00
2013-6-24,74.5,68.5,64.0,62.3,58.1,55.8,82,70,58,30.19,30.12,4,2,8,0.00
2013-6-25,78.2,68.5,63.1,58.8,56.9,54.8,77,67,50,30.19,30.13,5,2,7,0.00
2013-6-26,77.3,68.6,61.1,59.2,57.6,55.8,84,69,50,30.20,30.16,7,2,9,0.00
2013-6-27,80.1,69.6,58.5,57.2,52.9,46.4,82,57,39,30.20,30.10,6,2,9,0.00
2013-6-28,76.7,68.1,60.8,58.8,56.2,52.5,78,66,52,30.21,30.13,6,2,10,0.00
2013-6-29,82.6,71.7,60.4,59.5,55.7,52.1,79,60,36,30.22,30.14,7,3,11,0.00
2013-6-30,85.0,73.3,62.8,63.2,59.0,54.8,81,63,39,30.18,30.03,7,2,9,0.00